CheckWX is a tool to help pilots better visualize weather data.  It is not intended as a substitute for an official pre-flight weather briefing.

18:49:24 UTC

KOMH METAR
Orange County Airport
Orange, Virginia, USA
Current

54 mins ago

KOMH 061755Z AUTO 08006KT 10SM SCT055 19/10 A3004 RMK AO2
Observed
Apr-6 @ 17:55 UTC
Wind
  • 080° at 6 KTS
Visibility
Flight Rules
VFR
Cloud Levels
  • Scattered at 5,500' AGL
Temperature
19°C / 66°F
Dewpoint
10°C / 50°F
Humidity
56%
Altimeter
30.04" Hg
Pressure
1017.32 hPa
Previous

1 hour ago

KOMH 061735Z AUTO 01005KT 10SM SCT055 SCT070 18/10 A3006 RMK AO2
Observed
Apr-6 @ 17:35 UTC
Wind
  • 010° at 5 KTS
Visibility
Flight Rules
VFR
Cloud Levels
  • Scattered at 5,500' AGL
  • Scattered at 7,000' AGL
Temperature
18°C / 64°F
Dewpoint
10°C / 50°F
Humidity
60%
Altimeter
30.06" Hg
Pressure
1017.92 hPa
Previous

2 hours ago

KOMH 061715Z AUTO 06004KT 10SM BKN055 BKN065 17/10 A3007 RMK AO2
Observed
Apr-6 @ 17:15 UTC
Wind
  • 060° at 4 KTS
Visibility
Flight Rules
VFR
Cloud Levels
  • Broken at 5,500' AGL
  • Broken at 6,500' AGL
Temperature
17°C / 63°F
Dewpoint
10°C / 50°F
Humidity
64%
Altimeter
30.07" Hg
Pressure
1018.32 hPa